createdAt,value
2023-01-28T00:01:43.244Z,4.90
2023-01-28T00:04:12.299Z,4.67
2023-01-28T00:06:40.517Z,4.30
2023-01-28T00:09:08.892Z,4.80
2023-01-28T00:11:37.248Z,5.15
2023-01-28T00:14:05.586Z,5.37
2023-01-28T00:16:33.903Z,5.12
2023-01-28T00:19:02.221Z,5.08
2023-01-28T00:21:30.551Z,4.92
2023-01-28T00:23:58.956Z,5.45
2023-01-28T00:26:27.423Z,5.78
2023-01-28T00:28:55.596Z,5.80
2023-01-28T00:31:25.988Z,6.30
2023-01-28T00:33:55.073Z,5.30
2023-01-28T00:36:24.166Z,6.22
2023-01-28T00:38:52.988Z,5.47
2023-01-28T00:41:22.453Z,5.72
2023-01-28T00:43:51.096Z,6.12
2023-01-28T00:46:19.570Z,6.45
2023-01-28T00:48:48.031Z,6.80
2023-01-28T00:51:17.632Z,6.70
2023-01-28T00:53:45.843Z,6.95
2023-01-28T00:56:15.070Z,7.90
2023-01-28T00:58:43.481Z,8.63
2023-01-28T01:01:13.252Z,8.93
2023-01-28T01:03:41.791Z,8.85
2023-01-28T01:06:10.888Z,9.35
2023-01-28T01:08:40.747Z,8.43
2023-01-28T01:11:10.547Z,8.00
2023-01-28T01:13:38.961Z,8.53
2023-01-28T01:16:08.564Z,7.97
2023-01-28T01:18:37.458Z,7.45
2023-01-28T01:21:07.257Z,7.25
2023-01-28T01:23:35.487Z,7.95
2023-01-28T01:26:04.849Z,8.23
2023-01-28T01:28:33.525Z,8.03
2023-01-28T01:31:02.988Z,7.60
2023-01-28T01:33:31.638Z,7.85
2023-01-28T01:36:00.759Z,8.15
2023-01-28T01:38:30.331Z,8.10
2023-01-28T01:41:00.931Z,8.48
2023-01-28T01:43:59.056Z,8.03
2023-01-28T01:46:48.166Z,7.03
2023-01-28T01:49:22.619Z,7.60
2023-01-28T01:51:54.260Z,8.43
2023-01-28T01:54:25.229Z,7.60
2023-01-28T01:56:54.200Z,7.78
2023-01-28T01:59:25.825Z,7.12
2023-01-28T02:01:55.800Z,6.40
2023-01-28T02:04:27.419Z,5.92
2023-01-28T02:06:57.612Z,5.97
2023-01-28T02:09:29.572Z,5.67
2023-01-28T02:11:59.396Z,6.67
2023-01-28T02:14:31.760Z,6.17
2023-01-28T02:17:01.236Z,6.10
2023-01-28T02:19:41.724Z,5.85
2023-01-28T02:22:29.653Z,5.90
2023-01-28T02:25:03.764Z,6.28
2023-01-28T02:27:53.418Z,7.33
2023-01-28T02:30:23.153Z,6.00
2023-01-28T02:33:00.609Z,6.20
2023-01-28T02:35:38.160Z,6.05
2023-01-28T02:38:19.422Z,5.92
2023-01-28T02:41:03.014Z,5.20
2023-01-28T02:43:42.979Z,5.62
2023-01-28T02:46:41.255Z,5.92
2023-01-28T02:49:12.854Z,5.12
2023-01-28T02:51:56.168Z,5.77
2023-01-28T02:54:39.643Z,5.62
2023-01-28T02:57:23.215Z,6.10
2023-01-28T03:00:00.408Z,6.58
2023-01-28T03:02:48.416Z,6.35
2023-01-28T03:05:20.882Z,6.60
2023-01-28T03:10:20.856Z,6.97
2023-01-28T03:13:10.099Z,6.72
2023-01-28T03:16:02.070Z,7.53
2023-01-28T03:18:57.266Z,7.77
2023-01-28T03:21:49.224Z,8.18
2023-01-28T03:24:53.639Z,8.97
2023-01-28T03:27:55.001Z,9.93
2023-01-28T03:30:45.507Z,10.78
2023-01-28T03:33:32.441Z,11.22
2023-01-28T03:36:19.523Z,12.43
2023-01-28T03:38:48.479Z,13.32
2023-01-28T03:41:22.554Z,12.73
2023-01-28T03:43:51.661Z,13.15
2023-01-28T03:46:21.158Z,13.95
2023-01-28T03:48:49.744Z,14.45
2023-01-28T03:51:18.424Z,14.85
2023-01-28T03:53:46.946Z,15.28
2023-01-28T03:56:17.173Z,14.93
2023-01-28T03:58:50.362Z,14.80
2023-01-28T04:01:18.920Z,15.85
2023-01-28T04:03:47.522Z,15.28
2023-01-28T04:06:16.326Z,14.75
2023-01-28T04:08:46.497Z,15.50
2023-01-28T04:11:19.895Z,15.30
2023-01-28T04:13:49.669Z,14.95
2023-01-28T04:16:20.459Z,14.75
2023-01-28T04:18:49.011Z,13.88
2023-01-28T04:21:18.544Z,13.68
2023-01-28T04:23:47.119Z,13.58
2023-01-28T04:26:15.808Z,13.43
2023-01-28T04:28:45.023Z,15.28
2023-01-28T04:31:14.472Z,14.10
2023-01-28T04:33:45.033Z,13.00
2023-01-28T04:36:13.627Z,12.47
2023-01-28T04:38:42.384Z,12.88
2023-01-28T04:41:11.215Z,12.98
2023-01-28T04:43:39.829Z,12.23
2023-01-28T04:46:09.077Z,13.22
2023-01-28T04:48:38.319Z,13.10
2023-01-28T04:51:07.555Z,12.75
2023-01-28T04:53:36.269Z,12.90
2023-01-28T04:56:04.947Z,12.10
2023-01-28T04:58:33.485Z,12.90
2023-01-28T05:01:02.095Z,12.30
2023-01-28T05:03:30.603Z,12.33
2023-01-28T05:05:59.212Z,12.70
2023-01-28T05:08:27.788Z,12.63
2023-01-28T05:10:56.645Z,12.25
2023-01-28T05:13:25.355Z,12.43
2023-01-28T05:15:54.717Z,12.88
2023-01-28T05:18:23.301Z,12.25
2023-01-28T05:20:51.827Z,11.90
2023-01-28T05:23:20.352Z,11.70
2023-01-28T05:25:48.971Z,11.78
2023-01-28T05:28:17.709Z,12.58
2023-01-28T05:30:46.346Z,10.95
2023-01-28T05:33:14.968Z,11.65
2023-01-28T05:35:44.623Z,10.95
2023-01-28T05:38:15.334Z,11.43
2023-01-28T05:40:43.430Z,11.85
2023-01-28T05:43:12.135Z,11.40
2023-01-28T05:45:40.752Z,11.65
2023-01-28T05:48:09.479Z,10.65
2023-01-28T05:50:37.813Z,10.35
2023-01-28T05:53:09.865Z,9.85
2023-01-28T05:55:38.570Z,10.25
2023-01-28T05:58:07.107Z,10.28
2023-01-28T06:00:35.404Z,11.22
2023-01-28T06:03:03.960Z,11.40
2023-01-28T06:05:32.587Z,10.65
2023-01-28T06:08:01.165Z,11.05
2023-01-28T06:10:29.951Z,9.83
2023-01-28T06:12:58.740Z,10.43
2023-01-28T06:15:27.428Z,10.55
2023-01-28T06:17:56.085Z,9.68
2023-01-28T06:20:24.412Z,9.25
2023-01-28T06:22:53.305Z,10.18
2023-01-28T06:25:21.831Z,10.78
2023-01-28T06:27:50.398Z,10.63
2023-01-28T06:30:19.038Z,9.85
2023-01-28T06:32:47.561Z,10.53
2023-01-28T06:35:16.331Z,9.45
2023-01-28T06:37:45.440Z,9.40
2023-01-28T06:40:15.098Z,9.78
2023-01-28T06:42:43.447Z,10.15
2023-01-28T06:45:11.849Z,10.72
2023-01-28T06:47:40.288Z,11.50
2023-01-28T06:50:08.845Z,11.03
2023-01-28T06:52:37.064Z,11.68
2023-01-28T06:55:05.500Z,13.38
2023-01-28T06:57:33.943Z,11.57
2023-01-28T07:00:02.179Z,15.90
2023-01-28T07:02:30.374Z,11.88
2023-01-28T07:04:58.583Z,11.60
2023-01-28T07:07:26.814Z,10.98
2023-01-28T07:09:55.081Z,11.73
2023-01-28T07:12:23.325Z,12.53
2023-01-28T07:14:51.536Z,12.15
2023-01-28T07:17:19.941Z,11.90
2023-01-28T07:19:48.182Z,11.00
2023-01-28T07:22:16.472Z,11.12
2023-01-28T07:24:44.693Z,9.35
2023-01-28T07:27:13.011Z,9.80
2023-01-28T07:29:41.206Z,11.05
2023-01-28T07:32:09.428Z,10.78
2023-01-28T07:34:39.271Z,10.23
2023-01-28T07:37:07.497Z,11.48
2023-01-28T07:39:35.705Z,11.88
2023-01-28T07:42:04.178Z,12.47
2023-01-28T07:44:32.471Z,11.75
2023-01-28T07:47:00.709Z,11.68
2023-01-28T07:49:28.920Z,11.60
2023-01-28T07:51:57.219Z,11.68
2023-01-28T07:54:25.437Z,11.55
2023-01-28T07:56:53.687Z,12.25
2023-01-28T07:59:22.840Z,12.33
2023-01-28T08:01:52.126Z,11.50
2023-01-28T08:04:21.087Z,12.30
2023-01-28T08:06:49.698Z,11.90
2023-01-28T08:09:17.905Z,11.25
2023-01-28T08:11:46.192Z,11.38
2023-01-28T08:14:14.445Z,11.68
2023-01-28T08:16:42.747Z,12.47
2023-01-28T08:19:11.220Z,11.85
2023-01-28T08:21:39.434Z,12.00
2023-01-28T08:24:07.736Z,12.98
2023-01-28T08:26:36.213Z,11.97
2023-01-28T08:29:05.223Z,12.25
2023-01-28T08:31:33.450Z,12.47
2023-01-28T08:34:02.425Z,13.95
2023-01-28T08:36:30.699Z,10.88
2023-01-28T08:38:58.902Z,11.85
2023-01-28T08:41:27.152Z,12.15
2023-01-28T08:43:55.379Z,11.85
2023-01-28T08:46:23.641Z,11.88
2023-01-28T08:48:52.036Z,12.40
2023-01-28T08:51:20.247Z,12.28
2023-01-28T08:53:48.560Z,12.10
2023-01-28T08:56:16.839Z,11.10
2023-01-28T08:58:45.073Z,13.18
2023-01-28T09:01:13.322Z,11.22
2023-01-28T09:03:41.559Z,11.93
2023-01-28T09:06:09.730Z,12.30
2023-01-28T09:08:38.224Z,12.15
2023-01-28T09:11:06.511Z,12.15
2023-01-28T09:13:34.731Z,11.22
2023-01-28T09:16:04.507Z,11.73
2023-01-28T09:18:32.815Z,11.68
2023-01-28T09:21:01.027Z,12.03
2023-01-28T09:23:29.259Z,11.83
2023-01-28T09:26:01.148Z,12.65
2023-01-28T09:28:30.116Z,12.43
2023-01-28T09:31:05.196Z,12.35
2023-01-28T09:33:33.956Z,12.35
2023-01-28T09:36:03.162Z,12.13
2023-01-28T09:38:31.925Z,11.75
2023-01-28T09:41:00.913Z,12.25
2023-01-28T09:43:30.716Z,13.68
2023-01-28T09:46:00.466Z,11.93
2023-01-28T09:48:31.902Z,13.18
2023-01-28T09:51:01.444Z,13.43
2023-01-28T09:53:31.560Z,13.05
2023-01-28T09:56:01.493Z,11.18
2023-01-28T09:58:29.711Z,11.63
2023-01-28T10:01:14.518Z,11.88
2023-01-28T10:03:44.265Z,11.93
2023-01-28T10:06:16.946Z,13.93
2023-01-28T10:08:52.360Z,15.08
2023-01-28T10:11:38.620Z,15.18
2023-01-28T10:14:08.364Z,16.93
2023-01-28T10:16:41.044Z,18.65
2023-01-28T10:19:15.983Z,16.30
2023-01-28T10:21:59.604Z,16.17
2023-01-28T10:24:32.341Z,14.28
2023-01-28T10:27:01.073Z,14.78
2023-01-28T10:29:34.915Z,14.13
2023-01-28T10:32:07.322Z,12.55
2023-01-28T10:37:03.170Z,14.53
2023-01-28T10:39:31.471Z,17.17
2023-01-28T10:41:59.757Z,13.72
2023-01-28T10:44:30.404Z,16.60
2023-01-28T10:47:00.146Z,14.38
2023-01-28T10:49:29.902Z,13.00
2023-01-28T10:51:58.797Z,13.85
2023-01-28T10:54:28.117Z,13.95
2023-01-28T10:57:03.970Z,14.43
2023-01-28T10:59:35.702Z,14.63
2023-01-28T11:02:05.522Z,15.48
2023-01-28T11:04:36.338Z,13.13
2023-01-28T11:07:08.738Z,13.90
2023-01-28T11:12:23.731Z,15.05
2023-01-28T11:14:53.194Z,15.68
2023-01-28T11:17:24.507Z,13.72
2023-01-28T11:19:54.349Z,14.68
2023-01-28T11:22:24.132Z,14.45
2023-01-28T11:24:52.330Z,15.45
2023-01-28T11:27:21.817Z,15.53
2023-01-28T11:29:50.213Z,15.43
2023-01-28T11:32:19.985Z,15.35
2023-01-28T11:34:52.634Z,14.65
2023-01-28T11:37:25.128Z,18.40
2023-01-28T11:42:21.731Z,16.90
2023-01-28T11:44:50.140Z,16.73
2023-01-28T11:47:24.397Z,16.12
2023-01-28T11:49:54.152Z,18.10
2023-01-28T11:52:23.910Z,15.08
2023-01-28T11:54:53.659Z,14.63
2023-01-28T11:57:35.201Z,15.85
2023-01-28T12:00:05.240Z,15.70
2023-01-28T12:02:40.682Z,17.87
2023-01-28T12:05:26.610Z,16.45
2023-01-28T12:07:59.199Z,15.68
2023-01-28T12:10:31.724Z,15.90
2023-01-28T12:15:29.918Z,17.73
2023-01-28T12:18:14.752Z,16.32
2023-01-28T12:20:47.145Z,15.83
2023-01-28T12:25:53.180Z,15.95
2023-01-28T12:28:23.383Z,16.00
2023-01-28T12:30:55.694Z,15.50
2023-01-28T12:33:25.494Z,16.50
2023-01-28T12:36:07.262Z,16.05
2023-01-28T12:38:42.991Z,18.30
2023-01-28T12:41:18.856Z,16.60
2023-01-28T12:43:48.572Z,16.52
2023-01-28T12:46:30.295Z,16.23
2023-01-28T12:49:02.976Z,17.47
2023-01-28T12:51:35.411Z,17.20
2023-01-28T12:56:36.109Z,17.15
2023-01-28T12:59:05.885Z,17.42
2023-01-28T13:01:44.732Z,16.95
2023-01-28T13:04:23.493Z,16.57
2023-01-28T13:06:53.244Z,15.93
2023-01-28T13:09:23.113Z,14.13
2023-01-28T13:11:52.677Z,14.73
2023-01-28T13:14:22.442Z,14.60
2023-01-28T13:16:50.820Z,14.60
2023-01-28T13:19:20.568Z,15.80
2023-01-28T13:21:49.928Z,6.60
2023-01-28T13:24:19.828Z,13.98
2023-01-28T13:26:52.437Z,16.17
2023-01-28T13:29:22.179Z,15.03
2023-01-28T13:31:52.423Z,13.78
2023-01-28T13:34:32.863Z,14.45
2023-01-28T13:37:04.989Z,14.63
2023-01-28T13:39:34.131Z,14.18
2023-01-28T13:42:09.697Z,13.80
2023-01-28T13:44:38.750Z,13.90
2023-01-28T13:47:11.264Z,14.47
2023-01-28T13:49:43.991Z,16.12
2023-01-28T13:52:13.765Z,13.18
2023-01-28T13:54:43.515Z,12.93
2023-01-28T13:57:29.466Z,13.55
2023-01-28T14:00:01.915Z,13.43
2023-01-28T14:02:31.776Z,14.45
2023-01-28T14:05:07.533Z,14.20
2023-01-28T14:07:37.269Z,14.78
2023-01-28T14:10:07.070Z,14.23
2023-01-28T14:12:54.848Z,13.93
2023-01-28T14:15:24.655Z,13.75
2023-01-28T14:17:53.995Z,15.53
2023-01-28T14:20:37.645Z,15.05
2023-01-28T14:23:07.049Z,15.00
2023-01-28T14:25:39.496Z,14.40
2023-01-28T14:28:09.234Z,15.38
2023-01-28T14:30:39.000Z,14.87
2023-01-28T14:33:11.817Z,15.40
2023-01-28T14:35:41.575Z,13.93
2023-01-28T14:38:11.353Z,14.40
2023-01-28T14:40:40.584Z,14.03
2023-01-28T14:43:09.743Z,14.80
2023-01-28T14:45:51.577Z,15.63
2023-01-28T14:48:27.056Z,14.33
2023-01-28T14:51:11.876Z,15.10
2023-01-28T14:53:58.124Z,15.40
2023-01-28T14:56:30.540Z,16.60
2023-01-28T15:01:27.424Z,16.35
2023-01-28T15:03:55.669Z,26.15
2023-01-28T15:06:25.617Z,25.62
2023-01-28T15:08:54.393Z,22.67
2023-01-28T15:11:24.489Z,17.87
2023-01-28T15:13:57.193Z,22.85
2023-01-28T15:16:28.705Z,22.58
2023-01-28T15:18:57.532Z,15.65
2023-01-28T15:21:26.559Z,16.77
2023-01-28T15:23:56.354Z,19.82
2023-01-28T15:26:26.080Z,16.37
2023-01-28T15:28:55.121Z,14.80
2023-01-28T15:31:24.925Z,15.80
2023-01-28T15:34:03.897Z,15.05
2023-01-28T15:36:32.641Z,14.23
2023-01-28T15:39:00.862Z,15.68
2023-01-28T15:41:30.616Z,14.80
2023-01-28T15:43:58.881Z,17.05
2023-01-28T15:46:27.161Z,16.82
2023-01-28T15:48:56.958Z,15.30
2023-01-28T15:51:26.562Z,15.65
2023-01-28T15:53:56.274Z,15.80
2023-01-28T15:56:26.656Z,16.87
2023-01-28T15:58:55.912Z,16.37
2023-01-28T16:01:24.304Z,15.72
2023-01-28T16:04:02.766Z,17.15
2023-01-28T16:06:35.392Z,16.55
2023-01-28T16:09:05.142Z,15.60
2023-01-28T16:11:34.950Z,16.97
2023-01-28T16:14:03.420Z,16.87
2023-01-28T16:16:32.934Z,18.42
2023-01-28T16:19:03.008Z,20.02
2023-01-28T16:21:34.243Z,18.98
2023-01-28T16:24:07.385Z,19.25
2023-01-28T16:26:36.608Z,19.17
2023-01-28T16:29:15.399Z,21.07
2023-01-28T16:31:43.681Z,21.95
2023-01-28T16:34:11.972Z,23.35
2023-01-28T16:36:40.148Z,23.55
2023-01-28T16:39:08.360Z,24.52
2023-01-28T16:41:38.488Z,58.40
2023-01-28T16:44:07.088Z,25.25
2023-01-28T16:46:35.365Z,24.82
2023-01-28T16:49:03.627Z,26.20
2023-01-28T16:51:32.014Z,25.02
2023-01-28T16:54:00.297Z,27.37
2023-01-28T16:56:44.059Z,26.30
2023-01-28T16:58:59.319Z,25.70
2023-01-28T17:01:27.677Z,27.50
2023-01-28T17:03:56.546Z,26.75
2023-01-28T17:06:24.838Z,25.37
2023-01-28T17:08:53.079Z,26.60
2023-01-28T17:11:21.292Z,27.17
2023-01-28T17:13:49.473Z,25.40
2023-01-28T17:16:17.752Z,26.17
2023-01-28T17:18:47.976Z,28.40
2023-01-28T17:21:15.781Z,28.07
2023-01-28T17:23:44.151Z,25.17
2023-01-28T17:26:14.001Z,28.23
2023-01-28T17:28:42.494Z,28.70
2023-01-28T17:31:14.505Z,28.50
2023-01-28T17:33:42.770Z,28.05
2023-01-28T17:36:11.167Z,27.42
2023-01-28T17:38:39.547Z,28.70
2023-01-28T17:41:09.331Z,31.17
2023-01-28T17:43:37.627Z,30.75
2023-01-28T17:46:12.623Z,30.68
2023-01-28T17:48:41.066Z,31.30
2023-01-28T17:51:09.271Z,30.82
2023-01-28T17:53:37.486Z,30.97
2023-01-28T17:56:06.329Z,30.97
2023-01-28T17:58:34.555Z,31.30
2023-01-28T18:01:04.308Z,29.57
2023-01-28T18:03:32.573Z,29.82
2023-01-28T18:06:00.937Z,30.23
2023-01-28T18:08:29.137Z,29.95
2023-01-28T18:10:57.422Z,30.17
2023-01-28T18:13:26.879Z,29.20
2023-01-28T18:15:55.140Z,30.62
2023-01-28T18:18:23.337Z,28.77
2023-01-28T18:20:58.048Z,29.27
2023-01-28T18:23:26.315Z,31.65
2023-01-28T18:25:57.919Z,31.77
2023-01-28T18:28:26.722Z,33.63
2023-01-28T18:30:55.067Z,32.95
2023-01-28T18:33:24.086Z,32.50
2023-01-28T18:35:52.333Z,33.40
2023-01-28T18:38:20.539Z,33.28
2023-01-28T18:40:48.759Z,35.13
2023-01-28T18:43:16.968Z,35.45
2023-01-28T18:45:46.878Z,35.78
2023-01-28T18:48:15.115Z,34.90
2023-01-28T18:50:44.811Z,36.65
2023-01-28T18:53:13.054Z,33.18
2023-01-28T18:55:41.287Z,35.15
2023-01-28T18:58:09.529Z,38.48
2023-01-28T19:00:37.828Z,36.90
2023-01-28T19:03:06.203Z,36.75
2023-01-28T19:05:37.890Z,34.30
2023-01-28T19:08:06.860Z,35.75
2023-01-28T19:10:35.063Z,34.23
2023-01-28T19:13:03.767Z,37.05
2023-01-28T19:15:32.062Z,35.30
2023-01-28T19:18:01.947Z,37.38
2023-01-28T19:20:30.365Z,36.63
2023-01-28T19:22:58.592Z,37.53
2023-01-28T19:25:26.784Z,37.23
2023-01-28T19:27:55.039Z,37.23
2023-01-28T19:30:23.218Z,35.68
2023-01-28T19:32:51.900Z,36.30
2023-01-28T19:35:20.405Z,36.85
2023-01-28T19:37:48.633Z,38.13
2023-01-28T19:40:17.007Z,37.45
2023-01-28T19:42:45.682Z,36.53
2023-01-28T19:45:13.965Z,38.63
2023-01-28T19:47:42.304Z,37.15
2023-01-28T19:50:10.844Z,40.00
2023-01-28T19:52:39.073Z,41.48
2023-01-28T19:55:07.876Z,38.40
2023-01-28T19:57:36.158Z,37.95
2023-01-28T20:00:04.571Z,40.08
2023-01-28T20:02:33.361Z,41.35
2023-01-28T20:05:01.699Z,41.05
2023-01-28T20:07:29.948Z,40.63
2023-01-28T20:09:58.231Z,41.58
2023-01-28T20:12:26.465Z,41.10
2023-01-28T20:14:54.823Z,39.03
2023-01-28T20:17:23.098Z,40.45
2023-01-28T20:19:51.283Z,40.00
2023-01-28T20:22:19.540Z,42.50
2023-01-28T20:24:48.949Z,41.40
2023-01-28T20:27:17.212Z,40.48
2023-01-28T20:29:45.428Z,40.55
2023-01-28T20:32:17.774Z,38.53
2023-01-28T20:34:43.529Z,40.17
2023-01-28T20:37:11.786Z,38.42
2023-01-28T20:39:40.042Z,39.55
2023-01-28T20:42:10.025Z,40.73
2023-01-28T20:44:38.230Z,40.20
2023-01-28T20:47:06.479Z,38.98
2023-01-28T20:49:34.716Z,38.83
2023-01-28T20:52:03.732Z,41.85
2023-01-28T20:54:32.008Z,41.20
2023-01-28T20:57:00.315Z,39.85
2023-01-28T20:59:29.092Z,41.85
2023-01-28T21:01:57.301Z,47.58
2023-01-28T21:04:25.556Z,51.02
2023-01-28T21:06:53.889Z,54.03
2023-01-28T21:09:23.723Z,54.67
2023-01-28T21:11:51.982Z,53.48
2023-01-28T21:14:20.196Z,51.60
2023-01-28T21:16:50.171Z,50.60
2023-01-28T21:19:18.382Z,47.13
2023-01-28T21:21:46.915Z,47.17
2023-01-28T21:24:15.663Z,48.68
2023-01-28T21:26:43.859Z,51.98
2023-01-28T21:29:14.077Z,53.80
2023-01-28T21:31:44.299Z,52.88
2023-01-28T21:34:14.344Z,54.73
2023-01-28T21:36:43.203Z,53.15
2023-01-28T21:39:13.215Z,50.63
2023-01-28T21:41:41.801Z,49.48
2023-01-28T21:44:12.322Z,51.42
2023-01-28T21:46:41.011Z,51.85
2023-01-28T21:49:11.433Z,53.05
2023-01-28T21:51:40.287Z,52.93
2023-01-28T21:54:11.861Z,53.60
2023-01-28T21:56:40.765Z,52.55
2023-01-28T21:59:28.998Z,53.87
2023-01-28T22:02:06.234Z,55.98
2023-01-28T22:04:37.740Z,54.80
2023-01-28T22:07:08.750Z,53.58
2023-01-28T22:09:37.858Z,52.85
2023-01-28T22:12:09.799Z,52.40
2023-01-28T22:14:39.689Z,52.08
2023-01-28T22:17:10.642Z,49.70
2023-01-28T22:19:39.450Z,47.67
2023-01-28T22:22:08.548Z,46.20
2023-01-28T22:24:37.164Z,46.63
2023-01-28T22:27:05.782Z,47.48
2023-01-28T22:29:35.421Z,46.63
2023-01-28T22:32:04.875Z,42.58
2023-01-28T22:34:33.539Z,42.15
2023-01-28T22:37:02.144Z,41.70
2023-01-28T22:39:30.309Z,45.25
2023-01-28T22:41:58.868Z,44.63
2023-01-28T22:44:27.094Z,44.75
2023-01-28T22:46:55.473Z,44.80
2023-01-28T22:49:25.395Z,46.02
2023-01-28T22:51:53.950Z,41.05
2023-01-28T22:54:22.545Z,43.02
2023-01-28T22:56:51.094Z,43.48
2023-01-28T22:59:19.322Z,44.48
2023-01-28T23:01:47.933Z,42.13
2023-01-28T23:04:16.196Z,44.38
2023-01-28T23:06:44.718Z,45.20
2023-01-28T23:09:12.993Z,44.90
2023-01-28T23:11:41.558Z,44.35
2023-01-28T23:14:28.455Z,46.18
2023-01-28T23:17:14.584Z,47.30
2023-01-28T23:20:00.617Z,46.75
2023-01-28T23:22:47.934Z,47.23
2023-01-28T23:25:17.046Z,43.83
2023-01-28T23:27:45.844Z,46.63
2023-01-28T23:30:15.427Z,48.00
2023-01-28T23:32:45.607Z,46.53
2023-01-28T23:35:14.233Z,48.28
2023-01-28T23:37:42.831Z,46.35
2023-01-28T23:40:12.889Z,45.98
2023-01-28T23:42:41.846Z,43.35
2023-01-28T23:45:11.041Z,44.70
2023-01-28T23:47:39.581Z,44.40
2023-01-28T23:50:09.396Z,45.17
2023-01-28T23:52:37.953Z,42.10
2023-01-28T23:55:07.271Z,41.75
2023-01-28T23:57:37.380Z,43.42
